近畿・中四国TAF電文


関空(RJBB)
7/19 14h
TAF RJBB 190505Z 1906/2012 21011KT 9999 FEW020 SCT045 TEMPO
1906/1909 -TSRA FEW015 FEW025CB BKN035=

大阪(RJOO)
7/19 14h
TAF RJOO 190505Z 1906/2012 24006KT 9999 FEW025 SCT045 TEMPO
1906/1909 -TSRA FEW015 FEW025CB BKN035 BECMG 2000/2003
21005KT=

新広島(RJOA)
7/19 14h
TAF RJOA 190506Z 1906/2012 21008KT 9000 -SHRA FEW015 BKN035 TEMPO
1906/1909 -TSRA FEW010 FEW025CB BKN030 TEMPO 1921/2000 3000
BR TEMPO 2003/2009 -TSRA FEW010 FEW025CB BKN030=

岡山(RJOB)
7/19 14h
TAF RJOB 190506Z 1906/2012 23007KT 9999 FEW020 SCT045 TEMPO
1906/1909 TS FEW015 FEW020CB BKN030 TEMPO 1918/2000 4000
-SHRA BR FEW001 SCT005 BKN008 TEMPO 2003/2009 3000 TSRA BR
FEW008 SCT015 FEW020CB BKN025=

出雲(RJOC)
7/19 14h
TAF RJOC 190506Z 1906/2012 23012KT 7000 -SHRA FEW010 SCT020 BKN030
TEMPO 1906/1910 3000 TSRA BR FEW008 SCT015 FEW020CB BKN025=

美保(RJOH)
7/19 14h
TAF RJOH 190506Z 1906/2012 24012KT 7000 -SHRA FEW010 SCT020 BKN030
TEMPO 1906/1910 3000 TSRA BR FEW008 SCT015 FEW020CB BKN025=

高松(RJOT)
7/19 14h
TAF RJOT 190506Z 1906/2012 02005KT 6000 -SHRA FEW015 SCT025 BKN035
TEMPO 1906/1909 1500 +TSRA BR FEW010 SCT020 FEW025CB BKN030
BECMG 1907/1909 26010KT=

松山(RJOM)
7/19 14h
TAF RJOM 190506Z 1906/2012 24007KT 9999 FEW025 SCT045 TEMPO
1906/1909 TS FEW020 FEW025CB SCT040 BECMG 1914/1916 12005KT
BECMG 2000/2003 24005KT BECMG 2006/2009 18006KT=

高知(RJOK)
7/19 14h
TAF RJOK 190505Z 1906/2012 18008KT 9999 FEW020 SCT040 TEMPO
1906/1910 4000 -TSRA BR FEW015 FEW025CB BKN035 BECMG
1911/1913 35005KT BECMG 1921/2000 18007KT BECMG 2009/2012
35005KT=
Copyright(c) 2014 International Meteorological & Oceanographic Consultants Co,.Ltd. All Rights Reserved. Design by http://f-tpl.com